This is the latest recevied weather packets stored in our database for station/object KI7CSN-13. If no packets are shown the sender has not sent any weather packets the latest 1 day(s).
| Time | Temp. | Humidity | Pressure | Rain* | Wind** | Luminosity | Snow |
|---|---|---|---|---|---|---|---|
| 1778077358 | 10.56° C | 55% | 984.3 hPa | 0 mm | - | - | - |
| 1778077058 | 10° C | 57% | 984.3 hPa | 0 mm | - | - | - |
| 1778076758 | 9.44° C | 58% | 984.3 hPa | 0 mm | - | - | - |
| 1778076158 | 9.44° C | 59% | 984.3 hPa | 0 mm | - | - | - |
| 1778075258 | 8.89° C | 60% | 984 hPa | 0 mm | - | - | - |
| 1778074958 | 8.89° C | 61% | 984 hPa | 0 mm | - | - | - |
| 1778074058 | 8.33° C | 63% | 983.8 hPa | 0 mm | - | - | - |
| 1778073458 | 7.22° C | 66% | 983.8 hPa | 0 mm | - | - | - |
| 1778073159 | 6.67° C | 68% | 983.5 hPa | 0 mm | - | - | - |
| 1778072558 | 6.67° C | 64% | 983.4 hPa | 0 mm | - | - | - |
| 1778072258 | 6.67° C | 68% | 983.4 hPa | 0 mm | - | - | - |
| 1778071358 | 6.11° C | 66% | 983.3 hPa | 0 mm | - | - | - |
| 1778060558 | 9.44° C | 55% | 982.4 hPa | 0 mm | - | - | - |
| 1778058159 | 9.44° C | 49% | 982.4 hPa | 0 mm | - | - | - |
| 1778057259 | 10° C | 46% | 982.3 hPa | 0 mm | - | - | - |
| 1778056959 | 10° C | 47% | 982.3 hPa | 0 mm | - | - | - |
| 1778056659 | 10° C | 46% | 982.2 hPa | 0 mm | - | - | - |
| 1778056359 | 10° C | 46% | 982.3 hPa | 0 mm | - | - | - |
| 1778056059 | 10° C | 46% | 982.3 hPa | 0 mm | - | - | - |
| 1778055759 | 10.56° C | 46% | 982.3 hPa | 0 mm | - | - | - |
| 1778055459 | 10° C | 44% | 982.3 hPa | 0 mm | - | - | - |
| 1778055159 | 10° C | 44% | 982.3 hPa | 0 mm | - | - | - |
| 1778054859 | 10° C | 44% | 982.2 hPa | 0 mm | - | - | - |
| 1778054559 | 10° C | 44% | 982.2 hPa | 0 mm | - | - | - |
| 1778054259 | 10.56° C | 44% | 982.2 hPa | 0 mm | - | - | - |
* Rain latest hour (hover to see other rain measurements)
** Current wind speed in m/s (hover to see current wind gust speed)